Weather reports worldwide

Advertisment
Cazalla de la Sierra, Spain (8392): temperature & dewpoint: 10.07.2018 18:00:00 - 16.07.2018 18:00:00 (CEST)Cazalla de la Sierra, Spain (8392): wind speed & gusts: 10.07.2018 18:00:00 - 16.07.2018 18:00:00 (CEST)Cazalla de la Sierra, Spain (8392): wind direction: 10.07.2018 18:00:00 - 16.07.2018 18:00:00 (CEST)Cazalla de la Sierra, Spain (8392): precipitation: 10.07.2018 18:00:00 - 16.07.2018 18:00:00 (CEST)
Date & Time tt [°C] td [°C] ff [km/h] ff [kn] fx [km/h] fx [kn] dd rr [mm]
16.07.2018 18:00:00 - - - - - - - -
16.07.2018 17:00:00 28,0 7,3 4 2 19 11 NNW 0,0
16.07.2018 16:00:00 27,9 8,2 6 4 27 14 NW 0,0
16.07.2018 15:00:00 27,0 9,4 8 4 22 12 NW 0,0
16.07.2018 14:00:00 25,5 9,8 4 2 14 8 NNE -
16.07.2018 13:00:00 23,6 10,0 4 2 16 8 NNW 0,0
16.07.2018 12:00:00 23,2 11,6 3 2 13 7 N 0,0
16.07.2018 11:00:00 20,9 12,3 3 2 14 8 NNE 0,0
16.07.2018 10:00:00 18,2 12,9 8 5 14 8 ENE 0,0
16.07.2018 09:00:00 15,8 14,7 3 2 10 6 W 0,0
16.07.2018 08:00:00 13,9 13,7 3 2 7 4 N -
16.07.2018 07:00:00 13,8 13,6 3 2 7 4 NE 0,0
16.07.2018 06:00:00 13,7 13,2 2 1 11 6 ESE 0,0
16.07.2018 05:00:00 14,3 13,2 5 3 14 8 NNW 0,0
16.07.2018 04:00:00 14,9 12,9 6 4 22 12 NW 0,0
16.07.2018 03:00:00 15,5 12,3 9 5 18 10 NW 0,0
16.07.2018 02:00:00 15,8 11,4 4 2 11 6 NW -
16.07.2018 01:00:00 16,5 10,8 6 3 17 9 W 0,0
16.07.2018 00:00:00 16,4 10,7 2 1 8 4 WNW 0,0
15.07.2018 23:00:00 18,2 10,3 5 3 18 10 W 0,0
15.07.2018 22:00:00 19,8 9,1 5 3 19 10 SW 0,0
15.07.2018 21:00:00 22,6 5,1 8 4 20 11 WNW 0,0
15.07.2018 20:00:00 23,8 5,7 11 6 30 16 W -
15.07.2018 19:00:00 25,0 6,7 15 8 31 17 W 0,0
15.07.2018 18:00:00 25,0 7,2 16 9 29 16 W 0,0
15.07.2018 17:00:00 24,6 7,3 15 8 30 16 W 0,0
15.07.2018 16:00:00 24,3 9,1 11 6 29 16 W 0,0
15.07.2018 15:00:00 21,9 9,1 9 5 26 14 W 0,0
15.07.2018 14:00:00 21,4 9,0 11 6 25 14 W -
15.07.2018 13:00:00 21,0 10,5 6 3 18 10 SSW 0,0
15.07.2018 12:00:00 20,0 11,8 5 3 16 9 SSE 0,0
15.07.2018 11:00:00 18,6 12,6 6 4 15 8 WSW 0,0
15.07.2018 10:00:00 17,5 13,0 1 0 7 4 ESE 0,0
15.07.2018 09:00:00 14,8 13,7 1 1 4 2 NNW 0,0
15.07.2018 08:00:00 12,6 12,4 0 0 7 4 ESE -
15.07.2018 07:00:00 12,0 11,8 4 2 6 3 ESE 0,0
15.07.2018 06:00:00 12,9 12,7 2 1 4 2 ENE 0,0
15.07.2018 05:00:00 13,3 13,1 1 0 6 3 E 0,0
15.07.2018 04:00:00 13,3 13,1 2 1 9 5 WSW 0,0
15.07.2018 03:00:00 12,3 12,1 3 2 5 3 W 0,0
15.07.2018 02:00:00 12,7 12,1 2 1 11 6 W -
15.07.2018 01:00:00 14,5 11,7 3 2 13 7 SSE 0,0
15.07.2018 00:00:00 15,8 9,2 3 2 20 11 SW 0,0
14.07.2018 23:00:00 17,5 8,1 9 5 19 10 SSW 0,0
14.07.2018 22:00:00 19,4 6,2 7 4 20 11 S 0,0
14.07.2018 21:00:00 22,8 6,6 7 4 21 12 SW 0,0
14.07.2018 20:00:00 24,3 7,0 10 5 24 13 SW -
14.07.2018 19:00:00 24,8 8,7 10 5 25 13 SW 0,0
14.07.2018 18:00:00 25,3 8,3 8 5 23 13 SW 0,0
14.07.2018 17:00:00 25,0 8,9 10 6 25 13 SW 0,0
14.07.2018 16:00:00 24,2 9,4 8 5 27 14 W 0,0
14.07.2018 15:00:00 23,0 9,4 10 5 25 13 W 0,0
14.07.2018 14:00:00 22,5 10,0 10 5 23 12 SW -
14.07.2018 13:00:00 21,1 9,7 9 5 22 12 SW 0,0
14.07.2018 12:00:00 19,9 11,1 9 5 17 9 WSW 0,0
14.07.2018 11:00:00 18,9 11,7 3 2 14 7 S 0,0
14.07.2018 10:00:00 16,9 13,4 3 1 13 7 SSW 0,0
14.07.2018 09:00:00 14,8 14,0 6 3 10 5 WSW 0,0
14.07.2018 08:00:00 13,8 13,6 1 1 14 8 SSE -
14.07.2018 07:00:00 13,7 13,5 0 0 15 8 S 0,0
14.07.2018 06:00:00 11,6 11,4 3 1 6 3 ESE 0,0
14.07.2018 05:00:00 12,1 11,3 4 2 6 3 E 0,0
14.07.2018 04:00:00 13,3 10,7 1 1 9 5 SE 0,0
14.07.2018 03:00:00 14,2 10,6 3 1 9 5 E 0,0
14.07.2018 02:00:00 15,1 11,3 3 2 8 4 S -
14.07.2018 01:00:00 16,8 11,9 2 1 10 5 E 0,0
14.07.2018 00:00:00 17,8 11,1 3 1 11 6 WSW 0,0
13.07.2018 23:00:00 19,2 9,4 3 2 11 6 S 0,0
13.07.2018 22:00:00 21,2 8,1 3 2 11 6 SSW 0,0
13.07.2018 21:00:00 24,0 8,4 6 3 16 8 WSW 0,0
13.07.2018 20:00:00 25,1 8,2 7 4 22 12 WSW -
13.07.2018 19:00:00 24,9 8,0 7 4 19 11 SSW 0,0
13.07.2018 18:00:00 25,0 8,1 7 4 20 11 SSW 0,0
13.07.2018 17:00:00 24,2 8,2 5 3 20 11 SSW 0,0
13.07.2018 16:00:00 23,5 9,1 8 4 26 14 WSW 0,0
13.07.2018 15:00:00 23,4 10,8 10 6 27 14 W 0,0
13.07.2018 14:00:00 22,0 10,2 4 2 22 12 S -
13.07.2018 13:00:00 20,7 11,6 8 4 20 11 S 0,0
13.07.2018 12:00:00 20,0 11,8 6 3 19 10 SSE 0,0
13.07.2018 11:00:00 18,6 12,4 3 2 16 8 SSE 0,0
13.07.2018 10:00:00 16,8 13,3 4 2 14 7 WSW 0,0
13.07.2018 09:00:00 15,1 14,0 3 1 6 3 WSW 0,0
13.07.2018 08:00:00 14,0 13,8 1 0 11 6 WSW -
13.07.2018 07:00:00 14,2 14,0 2 1 10 5 WSW 0,0
13.07.2018 06:00:00 14,0 13,8 3 2 9 5 W 0,0
13.07.2018 05:00:00 12,9 12,7 0 0 0 0 N 0,0
13.07.2018 04:00:00 13,0 12,8 0 0 6 3 N 0,0
13.07.2018 03:00:00 13,7 13,4 1 1 8 4 E 0,0
13.07.2018 02:00:00 14,0 13,1 2 1 7 4 WNW -
13.07.2018 01:00:00 15,1 13,0 1 1 11 6 N 0,0
13.07.2018 00:00:00 15,8 12,4 3 2 12 7 WNW 0,0
12.07.2018 23:00:00 17,3 12,0 5 3 18 10 WSW 0,0
12.07.2018 22:00:00 19,2 11,5 5 3 19 11 SSW 0,0
12.07.2018 21:00:00 21,8 11,8 7 4 18 10 SW 0,0
12.07.2018 20:00:00 23,9 11,9 9 5 25 14 SW -
12.07.2018 19:00:00 24,9 11,8 9 5 23 12 SW 0,0
12.07.2018 18:00:00 25,7 11,8 8 4 23 12 SW 0,0
12.07.2018 17:00:00 27,0 13,0 9 5 26 14 WSW 0,0
12.07.2018 16:00:00 26,3 13,4 5 3 22 12 W 0,0
12.07.2018 15:00:00 24,5 13,4 6 3 16 9 WSW 0,0
12.07.2018 14:00:00 22,7 14,0 5 3 21 11 WSW -
12.07.2018 13:00:00 20,5 15,1 6 3 19 10 SSW 0,0
12.07.2018 12:00:00 18,1 16,6 5 3 14 8 SSW 0,0
12.07.2018 11:00:00 15,9 15,7 5 3 11 6 WSW 0,0
12.07.2018 10:00:00 15,2 15,0 4 2 10 5 W 0,0
12.07.2018 09:00:00 14,8 14,6 3 2 7 4 WSW 0,0
12.07.2018 08:00:00 14,2 14,0 0 0 0 0 N -
12.07.2018 07:00:00 14,4 14,2 0 0 8 4 WNW 0,0
12.07.2018 06:00:00 14,6 14,4 4 2 11 6 WNW 0,0
12.07.2018 05:00:00 13,7 13,5 0 0 0 0 N 0,0
12.07.2018 04:00:00 14,0 13,8 0 0 4 2 N 0,0
12.07.2018 03:00:00 14,8 14,6 1 1 4 2 SE 0,0
12.07.2018 02:00:00 15,4 15,1 1 0 4 2 SW -
12.07.2018 01:00:00 16,2 15,4 1 1 7 4 WNW 0,0
12.07.2018 00:00:00 16,8 15,0 5 3 8 4 WNW 0,0
11.07.2018 23:00:00 19,2 14,9 3 2 9 5 W 0,0
11.07.2018 22:00:00 21,2 14,1 5 3 16 9 SW 0,0
11.07.2018 21:00:00 23,2 14,2 8 4 25 13 WSW 0,0
11.07.2018 20:00:00 24,8 14,3 10 5 30 16 SW -
11.07.2018 19:00:00 26,1 13,2 12 6 31 17 SW 0,0
11.07.2018 18:00:00 28,6 12,5 11 6 29 16 W 0,0
11.07.2018 17:00:00 27,7 11,7 12 6 25 13 W 0,0
11.07.2018 16:00:00 27,4 12,2 10 6 29 16 W 0,0
11.07.2018 15:00:00 26,8 12,5 8 4 22 12 W 0,0
11.07.2018 14:00:00 25,6 11,7 12 6 25 14 W -
11.07.2018 13:00:00 23,3 15,1 6 3 16 9 SSW 0,0
11.07.2018 12:00:00 20,7 16,3 6 3 18 10 SW 0,0
11.07.2018 11:00:00 19,1 16,9 8 4 16 9 WSW 0,0
11.07.2018 10:00:00 16,9 16,7 5 3 14 7 WSW 0,0
11.07.2018 09:00:00 15,9 15,7 5 3 10 6 W 0,0
11.07.2018 08:00:00 14,0 13,8 0 0 0 0 N -
11.07.2018 07:00:00 14,0 13,8 0 0 5 3 N 0,0
11.07.2018 06:00:00 14,7 14,5 1 0 6 4 ESE 0,0
11.07.2018 05:00:00 15,3 15,1 1 1 5 3 ESE 0,0
11.07.2018 04:00:00 15,3 15,0 3 2 6 3 E 0,0
11.07.2018 03:00:00 15,2 14,6 2 1 4 2 ESE 0,0
11.07.2018 02:00:00 16,5 14,7 0 0 1 0 N -
11.07.2018 01:00:00 18,0 14,7 1 0 6 4 ENE 0,0
11.07.2018 00:00:00 20,2 14,3 1 1 14 8 N 0,0
10.07.2018 23:00:00 22,3 14,2 5 3 19 10 SW 0,0
10.07.2018 22:00:00 24,0 14,7 8 4 21 11 SSW 0,0
10.07.2018 21:00:00 26,8 14,5 7 4 22 12 SW 0,0
10.07.2018 20:00:00 28,0 15,6 9 5 29 15 SW -
10.07.2018 19:00:00 28,5 16,4 11 6 29 16 SW 0,0
10.07.2018 18:00:00 29,0 16,2 9 5 25 13 SW 0,0

tt = temperature
td = dewpoint
ff = wind speed
fx = gusts
dd = wind direction
rr = precipitation

Next stations